CKR7 weather

Virden (Gabrielle Farm) Airport
Virden, Manitoba, Canada

Public forecast

Using degrees Celsius for public forecast. Weather courtesy of forecast.io.

METAR (pilot weather report)

Closest report is Brandon Municipal Airport, 39.6 nm (73.3 km) ENE. Retrieved 2019/05/21 14:00 UTC (37 minutes ago):

CYBR 211400Z 09009KT 15SM BKN250 14/M00 A3010 RMK CI6 SLP202

TAF (pilot weather forecast)

Closest forecast is Brandon Municipal Airport, 39.6 nm (73.3 km) ENE. Retrieved 2019/05/21 12:42 UTC (2 hours ago):

TAF CYBR 211138Z 2112/2124 05006KT P6SM FEW220 BECMG 2113/2115 08010KT FM211700 09015KT P6SM SCT170 RMK NXT FCST BY 211800Z